createdAt,value
2023-04-28T00:00:58.861Z,99.08
2023-04-28T00:03:28.603Z,100.00
2023-04-28T00:05:57.859Z,100.00
2023-04-28T00:08:27.955Z,100.00
2023-04-28T00:10:56.516Z,99.32
2023-04-28T00:13:25.910Z,98.81
2023-04-28T00:15:56.484Z,97.84
2023-04-28T00:18:24.948Z,99.62
2023-04-28T00:20:53.631Z,99.88
2023-04-28T00:23:22.161Z,99.68
2023-04-28T00:25:54.253Z,100.00
2023-04-28T00:28:33.511Z,100.00
2023-04-28T00:31:02.894Z,100.00
2023-04-28T00:33:31.452Z,100.00
2023-04-28T00:36:02.899Z,100.00
2023-04-28T00:38:31.409Z,100.00
2023-04-28T00:41:01.247Z,100.00
2023-04-28T00:43:30.129Z,100.00
2023-04-28T00:45:58.842Z,100.00
2023-04-28T00:48:27.858Z,100.00
2023-04-28T00:50:56.403Z,100.00
2023-04-28T00:53:25.224Z,100.00
2023-04-28T00:55:57.272Z,100.00
2023-04-28T00:58:27.321Z,100.00
2023-04-28T01:01:03.459Z,100.00
2023-04-28T01:03:32.254Z,100.00
2023-04-28T01:06:01.851Z,100.00
2023-04-28T01:08:32.912Z,100.00
2023-04-28T01:11:03.298Z,100.00
2023-04-28T01:13:54.847Z,100.00
2023-04-28T01:16:23.470Z,100.00
2023-04-28T01:18:51.883Z,100.00
2023-04-28T01:21:29.251Z,100.00
2023-04-28T01:24:00.369Z,100.00
2023-04-28T01:26:29.684Z,100.00
2023-04-28T01:28:58.269Z,100.00
2023-04-28T01:31:26.892Z,100.00
2023-04-28T01:33:55.581Z,100.00
2023-04-28T01:36:24.117Z,100.00
2023-04-28T01:38:53.000Z,100.00
2023-04-28T01:41:22.928Z,100.00
2023-04-28T01:43:51.366Z,100.00
2023-04-28T01:46:19.986Z,100.00
2023-04-28T01:48:48.717Z,100.00
2023-04-28T01:51:17.040Z,100.00
2023-04-28T01:53:45.402Z,100.00
2023-04-28T01:56:14.024Z,100.00
2023-04-28T01:58:43.970Z,100.00
2023-04-28T02:01:13.406Z,100.00
2023-04-28T02:03:42.755Z,100.00
2023-04-28T02:06:11.433Z,100.00
2023-04-28T02:08:39.626Z,100.00
2023-04-28T02:11:08.376Z,100.00
2023-04-28T02:13:37.280Z,100.00
2023-04-28T02:16:07.975Z,100.00
2023-04-28T02:18:36.777Z,100.00
2023-04-28T02:21:11.436Z,100.00
2023-04-28T02:23:40.268Z,100.00
2023-04-28T02:26:09.618Z,100.00
2023-04-28T02:28:37.961Z,100.00
2023-04-28T02:31:10.177Z,100.00
2023-04-28T02:33:39.076Z,100.00
2023-04-28T02:36:08.681Z,100.00
2023-04-28T02:38:36.955Z,100.00
2023-04-28T02:41:09.469Z,100.00
2023-04-28T02:43:39.000Z,100.00
2023-04-28T02:46:09.059Z,100.00
2023-04-28T02:48:37.757Z,100.00
2023-04-28T02:51:06.707Z,100.00
2023-04-28T02:53:35.936Z,100.00
2023-04-28T02:56:04.805Z,100.00
2023-04-28T02:58:34.537Z,100.00
2023-04-28T03:01:02.948Z,100.00
2023-04-28T03:03:32.772Z,100.00
2023-04-28T03:06:01.403Z,100.00
2023-04-28T03:08:29.982Z,100.00
2023-04-28T03:10:58.366Z,100.00
2023-04-28T03:13:27.449Z,100.00
2023-04-28T03:15:55.775Z,100.00
2023-04-28T03:18:24.714Z,100.00
2023-04-28T03:20:54.395Z,100.00
2023-04-28T03:23:22.734Z,100.00
2023-04-28T03:25:51.253Z,100.00
2023-04-28T03:28:19.775Z,100.00
2023-04-28T03:30:48.127Z,100.00
2023-04-28T03:33:16.607Z,100.00
2023-04-28T03:35:45.054Z,100.00
2023-04-28T03:38:15.090Z,100.00
2023-04-28T03:40:43.467Z,100.00
2023-04-28T03:43:15.423Z,100.00
2023-04-28T03:46:00.409Z,100.00
2023-04-28T03:48:29.217Z,100.00
2023-04-28T03:50:57.572Z,100.00
2023-04-28T03:53:28.592Z,100.00
2023-04-28T03:55:57.162Z,100.00
2023-04-28T03:58:26.955Z,100.00
2023-04-28T04:00:55.459Z,100.00
2023-04-28T04:03:26.793Z,100.00
2023-04-28T04:05:57.732Z,100.00
2023-04-28T04:08:27.538Z,100.00
2023-04-28T04:10:56.138Z,100.00
2023-04-28T04:13:25.601Z,100.00
2023-04-28T04:15:54.203Z,100.00
2023-04-28T04:18:25.359Z,100.00
2023-04-28T04:21:33.133Z,100.00
2023-04-28T04:24:03.553Z,100.00
2023-04-28T04:26:32.139Z,100.00
2023-04-28T04:29:01.426Z,100.00
2023-04-28T04:31:30.082Z,100.00
2023-04-28T04:33:58.361Z,100.00
2023-04-28T04:36:27.352Z,100.00
2023-04-28T04:38:55.942Z,100.00
2023-04-28T04:41:27.777Z,100.00
2023-04-28T04:44:14.240Z,100.00
2023-04-28T04:46:48.826Z,100.00
2023-04-28T04:49:19.887Z,100.00
2023-04-28T04:51:48.667Z,100.00
2023-04-28T04:54:17.647Z,100.00
2023-04-28T04:56:48.254Z,100.00
2023-04-28T04:59:28.848Z,100.00
2023-04-28T05:02:08.664Z,100.00
2023-04-28T05:04:38.429Z,100.00
2023-04-28T05:07:07.313Z,100.00
2023-04-28T05:09:36.491Z,100.00
2023-04-28T05:12:07.794Z,100.00
2023-04-28T05:14:36.728Z,100.00
2023-04-28T05:17:05.159Z,100.00
2023-04-28T05:19:38.349Z,100.00
2023-04-28T05:22:07.350Z,100.00
2023-04-28T05:24:38.146Z,100.00
2023-04-28T05:27:08.612Z,100.00
2023-04-28T05:29:37.329Z,100.00
2023-04-28T05:32:06.831Z,100.00
2023-04-28T05:34:35.587Z,100.00
2023-04-28T05:37:04.459Z,100.00
2023-04-28T05:39:34.348Z,100.00
2023-04-28T05:42:06.128Z,100.00
2023-04-28T05:44:36.221Z,100.00
2023-04-28T05:47:05.395Z,100.00
2023-04-28T05:49:35.046Z,100.00
2023-04-28T05:52:06.514Z,100.00
2023-04-28T05:54:35.876Z,98.93
2023-04-28T05:57:04.525Z,95.78
2023-04-28T05:59:33.289Z,94.37
2023-04-28T06:02:03.815Z,93.93
2023-04-28T06:04:33.063Z,90.71
2023-04-28T06:07:02.096Z,90.91
2023-04-28T06:09:30.516Z,91.82
2023-04-28T06:11:59.523Z,92.30
2023-04-28T06:14:28.738Z,91.95
2023-04-28T06:16:57.645Z,90.01
2023-04-28T06:19:27.860Z,89.05
2023-04-28T06:21:56.849Z,89.30
2023-04-28T06:24:25.469Z,88.73
2023-04-28T06:26:57.930Z,88.30
2023-04-28T06:29:28.279Z,86.43
2023-04-28T06:31:57.973Z,86.53
2023-04-28T06:34:31.283Z,86.05
2023-04-28T06:37:00.197Z,85.82
2023-04-28T06:39:29.287Z,85.16
2023-04-28T06:41:58.215Z,81.94
2023-04-28T06:44:29.319Z,81.96
2023-04-28T06:46:58.031Z,80.71
2023-04-28T06:49:26.734Z,80.00
2023-04-28T06:52:02.497Z,78.58
2023-04-28T06:54:32.246Z,79.64
2023-04-28T06:57:01.176Z,76.40
2023-04-28T06:59:29.936Z,77.17
2023-04-28T07:01:58.412Z,74.25
2023-04-28T07:04:27.657Z,76.30
2023-04-28T07:06:56.630Z,75.48
2023-04-28T07:09:26.475Z,73.72
2023-04-28T07:11:55.840Z,72.18
2023-04-28T07:14:24.502Z,72.28
2023-04-28T07:16:53.253Z,72.83
2023-04-28T07:19:21.775Z,68.42
2023-04-28T07:21:50.347Z,68.19
2023-04-28T07:24:19.134Z,65.23
2023-04-28T07:26:49.318Z,64.71
2023-04-28T07:29:18.120Z,63.28
2023-04-28T07:31:47.298Z,62.89
2023-04-28T07:34:16.091Z,63.69
2023-04-28T07:36:45.388Z,65.63
2023-04-28T07:39:14.308Z,63.09
2023-04-28T07:41:42.930Z,61.56
2023-04-28T07:44:12.994Z,61.70
2023-04-28T07:46:42.037Z,61.20
2023-04-28T07:49:10.812Z,62.29
2023-04-28T07:51:39.177Z,60.66
2023-04-28T07:54:08.063Z,57.10
2023-04-28T07:56:36.840Z,57.55
2023-04-28T07:59:05.558Z,59.17
2023-04-28T08:01:35.608Z,60.12
2023-04-28T08:04:04.203Z,58.46
2023-04-28T08:06:33.342Z,61.42
2023-04-28T08:09:02.336Z,59.37
2023-04-28T08:11:30.733Z,58.91
2023-04-28T08:14:02.285Z,61.16
2023-04-28T08:16:30.678Z,60.18
2023-04-28T08:19:01.039Z,61.81
2023-04-28T08:21:29.528Z,61.02
2023-04-28T08:23:57.864Z,61.50
2023-04-28T08:26:27.262Z,62.75
2023-04-28T08:28:55.745Z,62.52
2023-04-28T08:31:24.297Z,62.53
2023-04-28T08:33:53.527Z,61.55
2023-04-28T08:36:25.469Z,63.21
2023-04-28T08:38:54.045Z,66.78
2023-04-28T08:41:22.782Z,67.99
2023-04-28T08:43:51.353Z,68.09
2023-04-28T08:46:22.821Z,67.53
2023-04-28T08:48:51.673Z,68.97
2023-04-28T08:51:30.295Z,70.18
2023-04-28T08:56:35.422Z,70.25
2023-04-28T08:59:05.631Z,70.59
2023-04-28T09:01:34.928Z,68.97
2023-04-28T09:04:04.194Z,68.99
2023-04-28T09:06:37.416Z,68.10
2023-04-28T09:09:27.069Z,71.12
2023-04-28T09:11:58.922Z,71.77
2023-04-28T09:14:28.124Z,69.78
2023-04-28T09:16:57.245Z,68.50
2023-04-28T09:19:26.176Z,67.70
2023-04-28T09:21:57.590Z,66.75
2023-04-28T09:24:33.703Z,68.53
2023-04-28T09:27:03.686Z,66.92
2023-04-28T09:29:33.169Z,64.61
2023-04-28T09:32:15.675Z,62.81
2023-04-28T09:34:46.658Z,61.05
2023-04-28T09:37:21.316Z,63.60
2023-04-28T09:39:51.931Z,61.83
2023-04-28T09:42:34.763Z,61.89
2023-04-28T09:45:04.169Z,61.46
2023-04-28T09:47:35.246Z,61.58
2023-04-28T09:50:06.428Z,58.22
2023-04-28T09:52:37.305Z,57.18
2023-04-28T09:55:08.926Z,57.43
2023-04-28T09:57:37.949Z,57.59
2023-04-28T10:00:09.309Z,57.87
2023-04-28T10:05:11.537Z,59.39
2023-04-28T10:07:42.446Z,59.23
2023-04-28T10:10:11.881Z,59.67
2023-04-28T10:12:41.494Z,60.25
2023-04-28T10:15:11.761Z,60.30
2023-04-28T10:17:40.749Z,62.78
2023-04-28T10:20:10.542Z,60.66
2023-04-28T10:22:56.318Z,59.87
2023-04-28T10:25:30.159Z,59.34
2023-04-28T10:27:59.858Z,60.20
2023-04-28T10:30:30.285Z,59.68
2023-04-28T10:33:27.211Z,57.90
2023-04-28T10:35:55.899Z,57.46
2023-04-28T10:38:25.783Z,58.23
2023-04-28T10:40:55.576Z,59.16
2023-04-28T10:43:37.856Z,55.62
2023-04-28T10:46:08.720Z,55.19
2023-04-28T10:48:57.470Z,56.16
2023-04-28T10:51:33.355Z,59.39
2023-04-28T10:54:19.819Z,58.19
2023-04-28T10:57:18.325Z,58.65
2023-04-28T10:59:47.263Z,58.05
2023-04-28T11:02:44.973Z,57.96
2023-04-28T11:05:16.720Z,59.04
2023-04-28T11:08:30.462Z,58.19
2023-04-28T11:11:20.083Z,57.02
2023-04-28T11:13:49.605Z,55.25
2023-04-28T11:16:20.757Z,55.39
2023-04-28T11:18:59.402Z,54.43
2023-04-28T11:21:29.653Z,54.23
2023-04-28T11:23:59.192Z,51.21
2023-04-28T11:26:30.931Z,48.53
2023-04-28T11:28:59.850Z,47.09
2023-04-28T11:31:28.999Z,49.27
2023-04-28T11:34:05.209Z,50.41
2023-04-28T11:36:36.893Z,50.65
2023-04-28T11:39:08.107Z,49.19
2023-04-28T11:41:39.358Z,50.77
2023-04-28T11:44:15.176Z,47.74
2023-04-28T11:46:50.665Z,45.90
2023-04-28T11:49:20.534Z,46.51
2023-04-28T11:51:50.394Z,46.94
2023-04-28T11:54:23.675Z,47.41
2023-04-28T11:56:54.257Z,46.30
2023-04-28T11:59:26.647Z,47.82
2023-04-28T12:01:57.368Z,48.45
2023-04-28T12:04:35.890Z,47.74
2023-04-28T12:07:06.394Z,47.72
2023-04-28T12:09:35.979Z,44.90
2023-04-28T12:12:07.005Z,44.33
2023-04-28T12:14:56.454Z,45.28
2023-04-28T12:17:25.653Z,46.86
2023-04-28T12:19:54.553Z,48.75
2023-04-28T12:22:23.454Z,49.44
2023-04-28T12:25:08.438Z,52.48
2023-04-28T12:27:40.633Z,50.02
2023-04-28T12:30:27.586Z,51.54
2023-04-28T12:32:57.758Z,52.05
2023-04-28T12:35:28.849Z,52.53
2023-04-28T12:37:59.197Z,51.84
2023-04-28T12:40:27.678Z,52.19
2023-04-28T12:42:57.517Z,53.64
2023-04-28T12:45:25.917Z,53.78
2023-04-28T12:47:54.221Z,56.66
2023-04-28T12:50:22.570Z,55.65
2023-04-28T12:52:50.857Z,54.30
2023-04-28T12:55:19.434Z,53.79
2023-04-28T12:57:47.972Z,53.80
2023-04-28T13:00:21.261Z,53.55
2023-04-28T13:02:50.070Z,54.87
2023-04-28T13:05:19.653Z,54.26
2023-04-28T13:07:49.604Z,57.38
2023-04-28T13:10:18.401Z,55.43
2023-04-28T13:12:46.829Z,55.73
2023-04-28T13:15:15.166Z,54.91
2023-04-28T13:17:46.623Z,56.57
2023-04-28T13:20:15.537Z,56.69
2023-04-28T13:22:43.931Z,57.55
2023-04-28T13:25:12.279Z,55.50
2023-04-28T13:27:43.224Z,57.46
2023-04-28T13:30:13.292Z,56.93
2023-04-28T13:32:41.685Z,56.76
2023-04-28T13:35:11.783Z,58.65
2023-04-28T13:37:45.758Z,56.93
2023-04-28T13:40:14.547Z,55.51
2023-04-28T13:42:42.902Z,57.32
2023-04-28T13:45:11.971Z,60.06
2023-04-28T13:47:40.450Z,58.54
2023-04-28T13:50:09.572Z,58.32
2023-04-28T13:52:39.341Z,58.37
2023-04-28T13:55:08.403Z,57.25
2023-04-28T13:57:36.688Z,58.62
2023-04-28T14:00:05.657Z,57.41
2023-04-28T14:02:38.946Z,58.42
2023-04-28T14:05:08.517Z,58.77
2023-04-28T14:07:38.375Z,58.63
2023-04-28T14:10:06.996Z,58.36
2023-04-28T14:12:35.467Z,60.55
2023-04-28T14:15:03.848Z,60.72
2023-04-28T14:17:32.701Z,61.46
2023-04-28T14:20:01.838Z,62.44
2023-04-28T14:22:30.270Z,61.74
2023-04-28T14:24:59.999Z,65.99
2023-04-28T14:27:29.415Z,67.44
2023-04-28T14:29:57.881Z,64.05
2023-04-28T14:32:26.519Z,67.00
2023-04-28T14:34:54.858Z,69.23
2023-04-28T14:37:23.209Z,68.90
2023-04-28T14:39:52.001Z,69.37
2023-04-28T14:42:21.852Z,71.61
2023-04-28T14:44:51.404Z,73.63
2023-04-28T14:47:20.695Z,72.69
2023-04-28T14:49:49.210Z,78.94
2023-04-28T14:52:18.154Z,77.32
2023-04-28T14:54:47.487Z,79.72
2023-04-28T14:57:16.285Z,83.95
2023-04-28T14:59:46.545Z,85.08
2023-04-28T15:02:15.099Z,83.85
2023-04-28T15:04:43.713Z,86.79
2023-04-28T15:07:12.226Z,87.13
2023-04-28T15:09:40.766Z,86.26
2023-04-28T15:12:09.328Z,87.94
2023-04-28T15:14:37.923Z,86.83
2023-04-28T15:17:08.190Z,87.90
2023-04-28T15:19:37.030Z,87.39
2023-04-28T15:22:05.608Z,86.58
2023-04-28T15:24:33.948Z,90.27
2023-04-28T15:27:04.116Z,89.65
2023-04-28T15:29:32.596Z,94.24
2023-04-28T15:32:01.438Z,90.66
2023-04-28T15:34:31.637Z,93.89
2023-04-28T15:37:00.213Z,93.40
2023-04-28T15:39:28.766Z,89.39
2023-04-28T15:41:58.773Z,90.05
2023-04-28T15:44:28.635Z,90.96
2023-04-28T15:46:58.971Z,94.53
2023-04-28T15:49:27.288Z,94.43
2023-04-28T15:51:57.744Z,95.56
2023-04-28T15:54:26.176Z,96.55
2023-04-28T15:56:55.494Z,96.12
2023-04-28T15:59:24.418Z,100.00
2023-04-28T16:01:52.933Z,97.57
2023-04-28T16:04:21.612Z,99.06
2023-04-28T16:06:52.139Z,100.00
2023-04-28T16:09:22.062Z,100.00
2023-04-28T16:11:50.631Z,100.00
2023-04-28T16:14:19.119Z,100.00
2023-04-28T16:16:47.570Z,97.95
2023-04-28T16:19:16.287Z,95.37
2023-04-28T16:21:44.800Z,93.47
2023-04-28T16:24:13.198Z,92.58
2023-04-28T16:26:43.553Z,93.28
2023-04-28T16:29:14.276Z,94.70
2023-04-28T16:31:43.036Z,94.81
2023-04-28T16:34:11.994Z,97.13
2023-04-28T16:36:41.576Z,95.98
2023-04-28T16:39:10.436Z,93.29
2023-04-28T16:41:38.830Z,100.00
2023-04-28T16:44:09.066Z,100.00
2023-04-28T16:46:37.521Z,100.00
2023-04-28T16:49:05.847Z,100.00
2023-04-28T16:51:34.769Z,100.00
2023-04-28T16:54:03.291Z,100.00
2023-04-28T16:56:32.582Z,100.00
2023-04-28T16:59:00.940Z,100.00
2023-04-28T17:01:31.814Z,100.00
2023-04-28T17:04:00.670Z,100.00
2023-04-28T17:06:29.370Z,100.00
2023-04-28T17:08:59.035Z,100.00
2023-04-28T17:11:27.840Z,100.00
2023-04-28T17:13:56.499Z,100.00
2023-04-28T17:16:25.037Z,100.00
2023-04-28T17:18:55.216Z,100.00
2023-04-28T17:21:23.805Z,100.00
2023-04-28T17:23:52.681Z,100.00
2023-04-28T17:26:21.135Z,100.00
2023-04-28T17:28:49.740Z,100.00
2023-04-28T17:31:18.509Z,100.00
2023-04-28T17:33:47.210Z,100.00
2023-04-28T17:36:17.293Z,100.00
2023-04-28T17:38:46.087Z,100.00
2023-04-28T17:41:15.265Z,100.00
2023-04-28T17:43:44.016Z,100.00
2023-04-28T17:46:12.743Z,100.00
2023-04-28T17:48:41.377Z,100.00
2023-04-28T17:51:09.707Z,100.00
2023-04-28T17:53:40.560Z,100.00
2023-04-28T17:56:09.660Z,100.00
2023-04-28T17:58:38.045Z,100.00
2023-04-28T18:01:08.585Z,100.00
2023-04-28T18:03:39.294Z,100.00
2023-04-28T18:06:08.227Z,100.00
2023-04-28T18:08:37.644Z,100.00
2023-04-28T18:11:10.218Z,100.00
2023-04-28T18:13:38.637Z,100.00
2023-04-28T18:16:08.824Z,100.00
2023-04-28T18:18:38.471Z,100.00
2023-04-28T18:21:07.077Z,100.00
2023-04-28T18:23:35.531Z,100.00
2023-04-28T18:26:05.159Z,100.00
2023-04-28T18:28:35.622Z,100.00
2023-04-28T18:31:06.752Z,100.00
2023-04-28T18:33:36.296Z,100.00
2023-04-28T18:36:06.791Z,100.00
2023-04-28T18:38:36.813Z,100.00
2023-04-28T18:41:14.142Z,100.00
2023-04-28T18:43:45.665Z,100.00
2023-04-28T18:46:15.189Z,100.00
2023-04-28T18:48:44.010Z,100.00
2023-04-28T18:51:13.912Z,100.00
2023-04-28T18:53:43.567Z,100.00
2023-04-28T18:56:13.534Z,100.00
2023-04-28T18:58:43.014Z,100.00
2023-04-28T19:01:16.663Z,100.00
2023-04-28T19:03:48.423Z,100.00
2023-04-28T19:06:17.957Z,100.00
2023-04-28T19:08:48.425Z,100.00
2023-04-28T19:11:18.354Z,100.00
2023-04-28T19:13:48.254Z,100.00
2023-04-28T19:16:20.058Z,100.00
2023-04-28T19:18:49.275Z,100.00
2023-04-28T19:21:18.063Z,100.00
2023-04-28T19:23:47.263Z,100.00
2023-04-28T19:26:17.160Z,100.00
2023-04-28T19:28:50.250Z,100.00
2023-04-28T19:31:21.447Z,100.00
2023-04-28T19:33:51.322Z,100.00
2023-04-28T19:36:24.237Z,100.00
2023-04-28T19:38:55.980Z,100.00
2023-04-28T19:41:25.701Z,100.00
2023-04-28T19:43:55.245Z,100.00
2023-04-28T19:46:25.488Z,100.00
2023-04-28T19:48:54.710Z,100.00
2023-04-28T19:51:23.656Z,100.00
2023-04-28T19:53:55.583Z,100.00
2023-04-28T19:56:26.119Z,100.00
2023-04-28T19:58:57.497Z,100.00
2023-04-28T20:01:30.186Z,100.00
2023-04-28T20:04:02.072Z,100.00
2023-04-28T20:06:32.741Z,100.00
2023-04-28T20:09:07.897Z,100.00
2023-04-28T20:11:36.750Z,100.00
2023-04-28T20:14:05.361Z,100.00
2023-04-28T20:16:35.713Z,100.00
2023-04-28T20:19:04.762Z,100.00
2023-04-28T20:21:35.844Z,100.00
2023-04-28T20:24:04.871Z,100.00
2023-04-28T20:26:33.774Z,100.00
2023-04-28T20:29:03.654Z,100.00
2023-04-28T20:31:32.662Z,100.00
2023-04-28T20:34:04.626Z,100.00
2023-04-28T20:36:33.833Z,100.00
2023-04-28T20:39:02.614Z,100.00
2023-04-28T20:41:31.309Z,100.00
2023-04-28T20:43:59.667Z,100.00
2023-04-28T20:46:28.020Z,100.00
2023-04-28T20:48:56.194Z,100.00
2023-04-28T20:51:25.936Z,100.00
2023-04-28T20:53:54.347Z,100.00
2023-04-28T20:56:22.581Z,100.00
2023-04-28T20:58:51.026Z,100.00
2023-04-28T21:01:19.746Z,100.00
2023-04-28T21:03:48.563Z,100.00
2023-04-28T21:06:17.006Z,100.00
2023-04-28T21:08:46.985Z,100.00
2023-04-28T21:11:16.677Z,100.00
2023-04-28T21:13:45.940Z,100.00
2023-04-28T21:16:19.407Z,100.00
2023-04-28T21:18:50.948Z,100.00
2023-04-28T21:21:19.369Z,100.00
2023-04-28T21:23:49.703Z,100.00
2023-04-28T21:26:18.421Z,100.00
2023-04-28T21:28:46.658Z,100.00
2023-04-28T21:31:15.027Z,100.00
2023-04-28T21:33:43.297Z,100.00
2023-04-28T21:36:11.738Z,100.00
2023-04-28T21:38:40.265Z,100.00
2023-04-28T21:41:12.534Z,100.00
2023-04-28T21:43:40.841Z,100.00
2023-04-28T21:46:09.791Z,100.00
2023-04-28T21:48:38.743Z,100.00
2023-04-28T21:51:07.199Z,100.00
2023-04-28T21:53:36.321Z,100.00
2023-04-28T21:56:05.795Z,100.00
2023-04-28T21:58:36.328Z,100.00
2023-04-28T22:01:05.890Z,100.00
2023-04-28T22:03:36.312Z,100.00
2023-04-28T22:06:05.639Z,100.00
2023-04-28T22:08:34.525Z,100.00
2023-04-28T22:11:02.809Z,100.00
2023-04-28T22:13:31.094Z,100.00
2023-04-28T22:16:01.908Z,100.00
2023-04-28T22:18:30.645Z,100.00
2023-04-28T22:20:59.341Z,100.00
2023-04-28T22:23:27.780Z,100.00
2023-04-28T22:25:59.250Z,100.00
2023-04-28T22:28:27.854Z,100.00
2023-04-28T22:30:56.211Z,100.00
2023-04-28T22:33:26.287Z,100.00
2023-04-28T22:35:54.630Z,100.00
2023-04-28T22:38:22.699Z,100.00
2023-04-28T22:40:50.872Z,100.00
2023-04-28T22:43:19.251Z,100.00
2023-04-28T22:45:47.587Z,100.00
2023-04-28T22:48:15.971Z,100.00
2023-04-28T22:50:47.512Z,100.00
2023-04-28T22:53:15.807Z,100.00
2023-04-28T22:55:44.222Z,100.00
2023-04-28T22:58:12.649Z,100.00
2023-04-28T23:00:41.606Z,100.00
2023-04-28T23:03:10.094Z,100.00
2023-04-28T23:05:39.254Z,100.00
2023-04-28T23:08:09.007Z,100.00
2023-04-28T23:10:37.410Z,100.00
2023-04-28T23:13:06.305Z,100.00
2023-04-28T23:15:34.600Z,100.00
2023-04-28T23:18:02.848Z,100.00
2023-04-28T23:20:31.366Z,100.00
2023-04-28T23:22:59.638Z,100.00
2023-04-28T23:25:29.801Z,100.00
2023-04-28T23:27:58.065Z,100.00
2023-04-28T23:30:26.537Z,100.00
2023-04-28T23:32:54.892Z,100.00
2023-04-28T23:35:23.224Z,100.00
2023-04-28T23:37:51.532Z,100.00
2023-04-28T23:40:19.942Z,100.00
2023-04-28T23:42:49.722Z,100.00
2023-04-28T23:45:18.173Z,100.00
2023-04-28T23:47:46.420Z,100.00
2023-04-28T23:50:14.770Z,100.00
2023-04-28T23:52:44.011Z,100.00
2023-04-28T23:55:13.153Z,100.00
2023-04-28T23:57:41.995Z,100.00
